Bloomville, Ohio
Current Conditions -  °F | °C
As of 1:53 AM on Monday 22 Dec 2014 (Local Time) from KMNN Reporting Station
Haze Haze  
Wind Chill: 16°   Ceiling: Unl
Heat Index: 23°   Visibility: 5mi
Dew Point: 18°   Wind: 6mph
Humidity: 81%   Direction: 140°SE
Pressure: 30.12"   Gusts: NA
Location:  41.05°N, 83.01°W
Report Text: KMNN 220653Z AUTO 14005KT 5SM HZ CLR M05/M08 A3012 RMK AO2 SLP211 T10501078 TSNO
Loading
Personal Weather Stations






























Interactive Weather Map New forecast layout! Learn more

10-Day Weather Forecast

Advertisements
Track Severe Weather on mobile